sensor_id;sensor_type;location;lat;lon;timestamp;temperature;humidity
45837;DHT22;31548;51.420;-0.040;2023-03-01T00:01:31;5.40;99.90
45837;DHT22;31548;51.420;-0.040;2023-03-01T00:03:59;5.40;99.90
45837;DHT22;31548;51.420;-0.040;2023-03-01T00:06:27;5.40;99.90
45837;DHT22;31548;51.420;-0.040;2023-03-01T00:08:55;5.50;99.90
45837;DHT22;31548;51.420;-0.040;2023-03-01T00:11:27;5.50;99.90
45837;DHT22;31548;51.420;-0.040;2023-03-01T00:13:57;5.40;99.90
45837;DHT22;31548;51.420;-0.040;2023-03-01T00:16:30;5.40;99.90
45837;DHT22;31548;51.420;-0.040;2023-03-01T00:18:59;5.50;99.90
45837;DHT22;31548;51.420;-0.040;2023-03-01T00:21:27;5.40;99.90
45837;DHT22;31548;51.420;-0.040;2023-03-01T00:23:55;5.40;99.90
45837;DHT22;31548;51.420;-0.040;2023-03-01T00:26:24;5.40;99.90
45837;DHT22;31548;51.420;-0.040;2023-03-01T00:28:52;5.40;99.90
45837;DHT22;31548;51.420;-0.040;2023-03-01T00:31:22;5.40;99.90
45837;DHT22;31548;51.420;-0.040;2023-03-01T00:33:53;5.40;99.90
45837;DHT22;31548;51.420;-0.040;2023-03-01T00:36:28;5.40;99.90
45837;DHT22;31548;51.420;-0.040;2023-03-01T00:38:57;5.40;99.90
45837;DHT22;31548;51.420;-0.040;2023-03-01T00:41:26;5.40;99.90
45837;DHT22;31548;51.420;-0.040;2023-03-01T00:43:54;5.30;99.90
45837;DHT22;31548;51.420;-0.040;2023-03-01T00:46:24;5.30;99.90
45837;DHT22;31548;51.420;-0.040;2023-03-01T00:48:52;5.30;99.90
45837;DHT22;31548;51.420;-0.040;2023-03-01T00:51:26;5.30;99.90
45837;DHT22;31548;51.420;-0.040;2023-03-01T00:53:58;5.20;99.90
45837;DHT22;31548;51.420;-0.040;2023-03-01T00:56:26;5.20;99.90
45837;DHT22;31548;51.420;-0.040;2023-03-01T00:58:53;5.10;99.90
45837;DHT22;31548;51.420;-0.040;2023-03-01T01:01:23;5.10;99.90
45837;DHT22;31548;51.420;-0.040;2023-03-01T01:03:56;5.10;99.90
45837;DHT22;31548;51.420;-0.040;2023-03-01T01:06:29;5.10;99.90
45837;DHT22;31548;51.420;-0.040;2023-03-01T01:08:57;5.10;99.90
45837;DHT22;31548;51.420;-0.040;2023-03-01T01:11:27;5.10;99.90
45837;DHT22;31548;51.420;-0.040;2023-03-01T01:13:55;5.10;99.90
45837;DHT22;31548;51.420;-0.040;2023-03-01T01:16:24;5.10;99.90
45837;DHT22;31548;51.420;-0.040;2023-03-01T01:18:52;5.10;99.90
45837;DHT22;31548;51.420;-0.040;2023-03-01T01:21:22;5.10;99.90
45837;DHT22;31548;51.420;-0.040;2023-03-01T01:23:50;5.10;99.90
45837;DHT22;31548;51.420;-0.040;2023-03-01T01:26:27;5.10;99.90
45837;DHT22;31548;51.420;-0.040;2023-03-01T01:28:55;5.10;99.90
45837;DHT22;31548;51.420;-0.040;2023-03-01T01:31:25;5.10;99.90
45837;DHT22;31548;51.420;-0.040;2023-03-01T01:33:53;5.10;99.90
45837;DHT22;31548;51.420;-0.040;2023-03-01T01:36:21;5.10;99.90
45837;DHT22;31548;51.420;-0.040;2023-03-01T01:38:48;5.10;99.90
45837;DHT22;31548;51.420;-0.040;2023-03-01T01:41:16;5.10;99.90
45837;DHT22;31548;51.420;-0.040;2023-03-01T01:43:46;5.10;99.90
45837;DHT22;31548;51.420;-0.040;2023-03-01T01:48:49;5.10;99.90
45837;DHT22;31548;51.420;-0.040;2023-03-01T01:51:20;5.10;99.90
45837;DHT22;31548;51.420;-0.040;2023-03-01T01:53:53;5.10;99.90
45837;DHT22;31548;51.420;-0.040;2023-03-01T01:56:24;5.10;99.90
45837;DHT22;31548;51.420;-0.040;2023-03-01T01:58:54;5.10;99.90
45837;DHT22;31548;51.420;-0.040;2023-03-01T02:01:21;5.10;99.90
45837;DHT22;31548;51.420;-0.040;2023-03-01T02:03:49;5.10;99.90
45837;DHT22;31548;51.420;-0.040;2023-03-01T02:06:21;5.10;99.90
45837;DHT22;31548;51.420;-0.040;2023-03-01T02:09:02;5.10;99.90
45837;DHT22;31548;51.420;-0.040;2023-03-01T02:11:32;5.10;99.90
45837;DHT22;31548;51.420;-0.040;2023-03-01T02:14:00;5.10;99.90
45837;DHT22;31548;51.420;-0.040;2023-03-01T02:16:28;5.10;99.90
45837;DHT22;31548;51.420;-0.040;2023-03-01T02:18:57;5.10;99.90
45837;DHT22;31548;51.420;-0.040;2023-03-01T02:24:18;5.20;99.90
45837;DHT22;31548;51.420;-0.040;2023-03-01T02:26:50;5.10;99.90
45837;DHT22;31548;51.420;-0.040;2023-03-01T02:29:19;5.10;99.90
45837;DHT22;31548;51.420;-0.040;2023-03-01T02:31:47;5.10;99.90
45837;DHT22;31548;51.420;-0.040;2023-03-01T02:34:22;5.10;99.90
45837;DHT22;31548;51.420;-0.040;2023-03-01T02:37:00;5.20;99.90
45837;DHT22;31548;51.420;-0.040;2023-03-01T02:39:32;5.10;99.90
45837;DHT22;31548;51.420;-0.040;2023-03-01T02:42:02;5.10;99.90
45837;DHT22;31548;51.420;-0.040;2023-03-01T02:44:31;5.10;99.90
45837;DHT22;31548;51.420;-0.040;2023-03-01T02:47:01;5.10;99.90
45837;DHT22;31548;51.420;-0.040;2023-03-01T02:49:32;5.20;99.90
45837;DHT22;31548;51.420;-0.040;2023-03-01T02:55:28;5.10;99.90
45837;DHT22;31548;51.420;-0.040;2023-03-01T02:57:32;5.20;99.90
45837;DHT22;31548;51.420;-0.040;2023-03-01T03:00:28;5.10;99.90
45837;DHT22;31548;51.420;-0.040;2023-03-01T03:03:00;5.10;99.90
45837;DHT22;31548;51.420;-0.040;2023-03-01T03:05:29;5.20;99.90
45837;DHT22;31548;51.420;-0.040;2023-03-01T03:08:01;5.20;99.90
45837;DHT22;31548;51.420;-0.040;2023-03-01T03:10:34;5.20;99.90
45837;DHT22;31548;51.420;-0.040;2023-03-01T03:13:08;5.20;99.90
45837;DHT22;31548;51.420;-0.040;2023-03-01T03:15:37;5.10;99.90
45837;DHT22;31548;51.420;-0.040;2023-03-01T03:18:09;5.20;99.90
45837;DHT22;31548;51.420;-0.040;2023-03-01T03:20:38;5.20;99.90
45837;DHT22;31548;51.420;-0.040;2023-03-01T03:23:06;5.20;99.90
45837;DHT22;31548;51.420;-0.040;2023-03-01T03:25:33;5.20;99.90
45837;DHT22;31548;51.420;-0.040;2023-03-01T03:28:06;5.20;99.90
45837;DHT22;31548;51.420;-0.040;2023-03-01T03:30:39;5.20;99.90
45837;DHT22;31548;51.420;-0.040;2023-03-01T03:33:07;5.10;99.90
45837;DHT22;31548;51.420;-0.040;2023-03-01T03:35:49;5.20;99.90
45837;DHT22;31548;51.420;-0.040;2023-03-01T03:38:19;5.20;99.90
45837;DHT22;31548;51.420;-0.040;2023-03-01T03:41:00;5.10;99.90
45837;DHT22;31548;51.420;-0.040;2023-03-01T03:43:31;5.20;99.90
45837;DHT22;31548;51.420;-0.040;2023-03-01T03:45:58;5.10;99.90
45837;DHT22;31548;51.420;-0.040;2023-03-01T03:48:26;5.20;99.90
45837;DHT22;31548;51.420;-0.040;2023-03-01T03:50:55;5.20;99.90
45837;DHT22;31548;51.420;-0.040;2023-03-01T03:53:24;5.20;99.90
45837;DHT22;31548;51.420;-0.040;2023-03-01T03:55:52;5.20;99.90
45837;DHT22;31548;51.420;-0.040;2023-03-01T03:58:22;5.20;99.90
45837;DHT22;31548;51.420;-0.040;2023-03-01T04:00:53;5.20;99.90
45837;DHT22;31548;51.420;-0.040;2023-03-01T04:03:20;5.20;99.90
45837;DHT22;31548;51.420;-0.040;2023-03-01T04:05:48;5.20;99.90
45837;DHT22;31548;51.420;-0.040;2023-03-01T04:08:19;5.20;99.90
45837;DHT22;31548;51.420;-0.040;2023-03-01T04:10:51;5.20;99.90
45837;DHT22;31548;51.420;-0.040;2023-03-01T04:13:21;5.20;99.90
45837;DHT22;31548;51.420;-0.040;2023-03-01T04:15:53;5.20;99.90
45837;DHT22;31548;51.420;-0.040;2023-03-01T04:18:22;5.20;99.90
45837;DHT22;31548;51.420;-0.040;2023-03-01T04:20:51;5.20;99.90
45837;DHT22;31548;51.420;-0.040;2023-03-01T04:23:20;5.20;99.90
45837;DHT22;31548;51.420;-0.040;2023-03-01T04:25:56;5.20;99.90
45837;DHT22;31548;51.420;-0.040;2023-03-01T04:31:10;5.10;99.90
45837;DHT22;31548;51.420;-0.040;2023-03-01T04:33:45;5.20;99.90
45837;DHT22;31548;51.420;-0.040;2023-03-01T04:36:14;5.10;99.90
45837;DHT22;31548;51.420;-0.040;2023-03-01T04:38:42;5.10;99.90
45837;DHT22;31548;51.420;-0.040;2023-03-01T04:41:16;5.10;99.90
45837;DHT22;31548;51.420;-0.040;2023-03-01T04:43:44;5.10;99.90
45837;DHT22;31548;51.420;-0.040;2023-03-01T04:46:15;5.20;99.90
45837;DHT22;31548;51.420;-0.040;2023-03-01T04:48:45;5.10;99.90
45837;DHT22;31548;51.420;-0.040;2023-03-01T04:51:14;5.10;99.90
45837;DHT22;31548;51.420;-0.040;2023-03-01T04:53:42;5.10;99.90
45837;DHT22;31548;51.420;-0.040;2023-03-01T04:56:10;5.00;99.90
45837;DHT22;31548;51.420;-0.040;2023-03-01T04:58:37;5.00;99.90
45837;DHT22;31548;51.420;-0.040;2023-03-01T05:01:19;5.00;99.90
45837;DHT22;31548;51.420;-0.040;2023-03-01T05:03:49;5.00;99.90
45837;DHT22;31548;51.420;-0.040;2023-03-01T05:06:18;5.00;99.90
45837;DHT22;31548;51.420;-0.040;2023-03-01T05:08:46;5.00;99.90
45837;DHT22;31548;51.420;-0.040;2023-03-01T05:11:13;5.00;99.90
45837;DHT22;31548;51.420;-0.040;2023-03-01T05:13:41;5.00;99.90
45837;DHT22;31548;51.420;-0.040;2023-03-01T05:16:09;5.00;99.90
45837;DHT22;31548;51.420;-0.040;2023-03-01T05:18:40;5.00;99.90
45837;DHT22;31548;51.420;-0.040;2023-03-01T05:21:12;5.00;99.90
45837;DHT22;31548;51.420;-0.040;2023-03-01T05:23:43;5.00;99.90
45837;DHT22;31548;51.420;-0.040;2023-03-01T05:26:11;5.00;99.90
45837;DHT22;31548;51.420;-0.040;2023-03-01T05:28:54;5.00;99.90
45837;DHT22;31548;51.420;-0.040;2023-03-01T05:31:26;5.00;99.90
45837;DHT22;31548;51.420;-0.040;2023-03-01T05:33:54;5.00;99.90
45837;DHT22;31548;51.420;-0.040;2023-03-01T05:36:21;5.00;99.90
45837;DHT22;31548;51.420;-0.040;2023-03-01T05:38:48;5.00;99.90
45837;DHT22;31548;51.420;-0.040;2023-03-01T05:41:16;5.00;99.90
45837;DHT22;31548;51.420;-0.040;2023-03-01T05:43:44;5.00;99.90
45837;DHT22;31548;51.420;-0.040;2023-03-01T05:46:12;5.00;99.90
45837;DHT22;31548;51.420;-0.040;2023-03-01T05:48:42;5.00;99.90
45837;DHT22;31548;51.420;-0.040;2023-03-01T05:51:10;5.00;99.90
45837;DHT22;31548;51.420;-0.040;2023-03-01T05:53:39;5.00;99.90
45837;DHT22;31548;51.420;-0.040;2023-03-01T05:56:06;4.90;99.90
45837;DHT22;31548;51.420;-0.040;2023-03-01T05:58:34;5.00;99.90
45837;DHT22;31548;51.420;-0.040;2023-03-01T06:01:01;5.00;99.90
45837;DHT22;31548;51.420;-0.040;2023-03-01T06:03:28;5.00;99.90
45837;DHT22;31548;51.420;-0.040;2023-03-01T06:05:57;5.00;99.90
45837;DHT22;31548;51.420;-0.040;2023-03-01T06:08:24;5.00;99.90
45837;DHT22;31548;51.420;-0.040;2023-03-01T06:10:53;4.90;99.90
45837;DHT22;31548;51.420;-0.040;2023-03-01T06:13:21;4.90;99.90
45837;DHT22;31548;51.420;-0.040;2023-03-01T06:15:50;4.90;99.90
45837;DHT22;31548;51.420;-0.040;2023-03-01T06:18:17;4.90;99.90
45837;DHT22;31548;51.420;-0.040;2023-03-01T06:20:44;4.90;99.90
45837;DHT22;31548;51.420;-0.040;2023-03-01T06:23:11;4.90;99.90
45837;DHT22;31548;51.420;-0.040;2023-03-01T06:25:39;4.90;99.90
45837;DHT22;31548;51.420;-0.040;2023-03-01T06:28:06;4.80;99.90
45837;DHT22;31548;51.420;-0.040;2023-03-01T06:30:33;4.80;99.90
45837;DHT22;31548;51.420;-0.040;2023-03-01T06:33:00;4.90;99.90
45837;DHT22;31548;51.420;-0.040;2023-03-01T06:35:30;4.80;99.90
45837;DHT22;31548;51.420;-0.040;2023-03-01T06:38:00;4.80;99.90
45837;DHT22;31548;51.420;-0.040;2023-03-01T06:40:28;4.90;99.90
45837;DHT22;31548;51.420;-0.040;2023-03-01T06:42:55;4.90;99.90
45837;DHT22;31548;51.420;-0.040;2023-03-01T06:45:23;4.90;99.90
45837;DHT22;31548;51.420;-0.040;2023-03-01T06:47:51;4.90;99.90
45837;DHT22;31548;51.420;-0.040;2023-03-01T06:50:18;4.90;99.90
45837;DHT22;31548;51.420;-0.040;2023-03-01T06:52:46;4.90;99.90
45837;DHT22;31548;51.420;-0.040;2023-03-01T06:55:13;4.90;99.90
45837;DHT22;31548;51.420;-0.040;2023-03-01T06:57:40;4.90;99.90
45837;DHT22;31548;51.420;-0.040;2023-03-01T07:00:08;4.90;99.90
45837;DHT22;31548;51.420;-0.040;2023-03-01T07:02:36;4.90;99.90
45837;DHT22;31548;51.420;-0.040;2023-03-01T07:05:03;4.90;99.90
45837;DHT22;31548;51.420;-0.040;2023-03-01T07:07:31;4.90;99.90
45837;DHT22;31548;51.420;-0.040;2023-03-01T07:09:58;4.90;99.90
45837;DHT22;31548;51.420;-0.040;2023-03-01T07:12:26;4.90;99.90
45837;DHT22;31548;51.420;-0.040;2023-03-01T07:14:53;4.90;99.90
45837;DHT22;31548;51.420;-0.040;2023-03-01T07:17:20;4.90;99.90
45837;DHT22;31548;51.420;-0.040;2023-03-01T07:19:47;4.90;99.90
45837;DHT22;31548;51.420;-0.040;2023-03-01T07:22:15;4.90;99.90
45837;DHT22;31548;51.420;-0.040;2023-03-01T07:24:42;5.00;99.90
45837;DHT22;31548;51.420;-0.040;2023-03-01T07:27:10;5.00;99.90
45837;DHT22;31548;51.420;-0.040;2023-03-01T07:29:37;5.00;99.90
45837;DHT22;31548;51.420;-0.040;2023-03-01T07:32:06;5.10;99.90
45837;DHT22;31548;51.420;-0.040;2023-03-01T07:34:33;5.10;99.90
45837;DHT22;31548;51.420;-0.040;2023-03-01T07:37:00;5.10;99.90
45837;DHT22;31548;51.420;-0.040;2023-03-01T07:39:28;5.10;99.90
45837;DHT22;31548;51.420;-0.040;2023-03-01T07:41:55;5.10;99.90
45837;DHT22;31548;51.420;-0.040;2023-03-01T07:44:22;5.20;99.90
45837;DHT22;31548;51.420;-0.040;2023-03-01T07:46:50;5.20;99.90
45837;DHT22;31548;51.420;-0.040;2023-03-01T07:49:19;5.20;99.90
45837;DHT22;31548;51.420;-0.040;2023-03-01T07:51:47;5.20;99.90
45837;DHT22;31548;51.420;-0.040;2023-03-01T07:54:14;5.20;99.90
45837;DHT22;31548;51.420;-0.040;2023-03-01T07:56:42;5.20;99.90
45837;DHT22;31548;51.420;-0.040;2023-03-01T07:59:09;5.20;99.90
45837;DHT22;31548;51.420;-0.040;2023-03-01T08:01:36;5.30;99.90
45837;DHT22;31548;51.420;-0.040;2023-03-01T08:04:04;5.30;99.90
45837;DHT22;31548;51.420;-0.040;2023-03-01T08:06:34;5.30;99.90
45837;DHT22;31548;51.420;-0.040;2023-03-01T08:09:02;5.40;99.90
45837;DHT22;31548;51.420;-0.040;2023-03-01T08:11:29;5.40;99.90
45837;DHT22;31548;51.420;-0.040;2023-03-01T08:13:57;5.40;99.90
45837;DHT22;31548;51.420;-0.040;2023-03-01T08:16:24;5.50;99.90
45837;DHT22;31548;51.420;-0.040;2023-03-01T08:18:52;5.40;99.90
45837;DHT22;31548;51.420;-0.040;2023-03-01T08:21:19;5.50;99.90
45837;DHT22;31548;51.420;-0.040;2023-03-01T08:23:46;5.50;99.90
45837;DHT22;31548;51.420;-0.040;2023-03-01T08:26:16;5.50;99.90
45837;DHT22;31548;51.420;-0.040;2023-03-01T08:28:44;5.50;99.90
45837;DHT22;31548;51.420;-0.040;2023-03-01T08:31:19;5.50;99.90
45837;DHT22;31548;51.420;-0.040;2023-03-01T08:33:49;5.60;99.90
45837;DHT22;31548;51.420;-0.040;2023-03-01T08:36:27;5.60;99.90
45837;DHT22;31548;51.420;-0.040;2023-03-01T08:38:55;5.50;99.90
45837;DHT22;31548;51.420;-0.040;2023-03-01T08:41:23;5.60;99.90
45837;DHT22;31548;51.420;-0.040;2023-03-01T08:43:50;5.60;99.90
45837;DHT22;31548;51.420;-0.040;2023-03-01T08:46:18;5.60;99.90
45837;DHT22;31548;51.420;-0.040;2023-03-01T08:48:45;5.70;99.90
45837;DHT22;31548;51.420;-0.040;2023-03-01T08:51:18;5.70;99.90
45837;DHT22;31548;51.420;-0.040;2023-03-01T08:53:45;5.70;99.90
45837;DHT22;31548;51.420;-0.040;2023-03-01T08:56:13;5.80;99.90
45837;DHT22;31548;51.420;-0.040;2023-03-01T08:58:44;5.70;99.90
45837;DHT22;31548;51.420;-0.040;2023-03-01T09:01:14;5.80;99.90
45837;DHT22;31548;51.420;-0.040;2023-03-01T09:03:42;5.80;99.90
45837;DHT22;31548;51.420;-0.040;2023-03-01T09:06:10;5.90;99.90
45837;DHT22;31548;51.420;-0.040;2023-03-01T09:08:39;5.90;99.90
45837;DHT22;31548;51.420;-0.040;2023-03-01T09:11:08;6.00;99.90
45837;DHT22;31548;51.420;-0.040;2023-03-01T09:13:36;6.00;99.90
45837;DHT22;31548;51.420;-0.040;2023-03-01T09:16:05;6.10;99.90
45837;DHT22;31548;51.420;-0.040;2023-03-01T09:18:34;6.10;99.90
45837;DHT22;31548;51.420;-0.040;2023-03-01T09:21:09;6.20;99.90
45837;DHT22;31548;51.420;-0.040;2023-03-01T09:23:39;6.20;99.90
45837;DHT22;31548;51.420;-0.040;2023-03-01T09:26:20;6.20;99.90
45837;DHT22;31548;51.420;-0.040;2023-03-01T09:28:51;6.30;99.90
45837;DHT22;31548;51.420;-0.040;2023-03-01T09:31:20;6.40;99.90
45837;DHT22;31548;51.420;-0.040;2023-03-01T09:33:50;6.30;99.90
45837;DHT22;31548;51.420;-0.040;2023-03-01T09:36:20;6.40;99.90
45837;DHT22;31548;51.420;-0.040;2023-03-01T09:38:48;6.50;99.90
45837;DHT22;31548;51.420;-0.040;2023-03-01T09:46:43;6.60;99.90
45837;DHT22;31548;51.420;-0.040;2023-03-01T09:49:27;6.70;99.90
45837;DHT22;31548;51.420;-0.040;2023-03-01T09:54:31;6.70;99.90
45837;DHT22;31548;51.420;-0.040;2023-03-01T09:57:06;6.70;99.90
45837;DHT22;31548;51.420;-0.040;2023-03-01T10:05:19;7.00;99.90
45837;DHT22;31548;51.420;-0.040;2023-03-01T10:08:34;6.90;99.90
45837;DHT22;31548;51.420;-0.040;2023-03-01T10:11:29;7.00;99.90
45837;DHT22;31548;51.420;-0.040;2023-03-01T10:19:44;7.30;99.90
45837;DHT22;31548;51.420;-0.040;2023-03-01T10:24:42;7.40;99.90
45837;DHT22;31548;51.420;-0.040;2023-03-01T10:27:23;7.50;99.90
45837;DHT22;31548;51.420;-0.040;2023-03-01T10:32:36;7.50;99.90
45837;DHT22;31548;51.420;-0.040;2023-03-01T10:35:23;7.40;99.90
45837;DHT22;31548;51.420;-0.040;2023-03-01T10:38:09;7.40;99.90
45837;DHT22;31548;51.420;-0.040;2023-03-01T10:40:52;7.40;99.90
45837;DHT22;31548;51.420;-0.040;2023-03-01T10:43:20;7.50;99.90
45837;DHT22;31548;51.420;-0.040;2023-03-01T10:45:48;7.40;99.90
45837;DHT22;31548;51.420;-0.040;2023-03-01T10:48:21;7.40;99.90
45837;DHT22;31548;51.420;-0.040;2023-03-01T10:51:06;7.40;99.90
45837;DHT22;31548;51.420;-0.040;2023-03-01T10:53:36;7.50;99.90
45837;DHT22;31548;51.420;-0.040;2023-03-01T10:56:11;7.40;99.90
45837;DHT22;31548;51.420;-0.040;2023-03-01T10:58:57;7.40;99.90
45837;DHT22;31548;51.420;-0.040;2023-03-01T11:01:29;7.30;99.90
45837;DHT22;31548;51.420;-0.040;2023-03-01T11:06:34;7.30;99.90
45837;DHT22;31548;51.420;-0.040;2023-03-01T11:09:21;7.30;99.90
45837;DHT22;31548;51.420;-0.040;2023-03-01T11:11:53;7.20;99.90
45837;DHT22;31548;51.420;-0.040;2023-03-01T11:14:36;7.30;99.90
45837;DHT22;31548;51.420;-0.040;2023-03-01T11:17:12;7.30;99.90
45837;DHT22;31548;51.420;-0.040;2023-03-01T11:19:42;7.30;99.90
45837;DHT22;31548;51.420;-0.040;2023-03-01T11:22:27;7.30;99.90
45837;DHT22;31548;51.420;-0.040;2023-03-01T11:24:55;7.40;99.90
45837;DHT22;31548;51.420;-0.040;2023-03-01T11:27:43;7.40;99.90
45837;DHT22;31548;51.420;-0.040;2023-03-01T11:30:31;7.30;99.90
45837;DHT22;31548;51.420;-0.040;2023-03-01T11:33:13;7.40;99.90
45837;DHT22;31548;51.420;-0.040;2023-03-01T11:35:55;7.50;99.90
45837;DHT22;31548;51.420;-0.040;2023-03-01T11:38:26;7.40;99.90
45837;DHT22;31548;51.420;-0.040;2023-03-01T11:40:59;7.40;99.90
45837;DHT22;31548;51.420;-0.040;2023-03-01T11:46:37;7.30;99.90
45837;DHT22;31548;51.420;-0.040;2023-03-01T11:52:22;7.50;99.90
45837;DHT22;31548;51.420;-0.040;2023-03-01T12:06:22;7.70;99.90
45837;DHT22;31548;51.420;-0.040;2023-03-01T12:11:56;7.90;99.90
45837;DHT22;31548;51.420;-0.040;2023-03-01T12:20:36;7.70;99.90
45837;DHT22;31548;51.420;-0.040;2023-03-01T12:37:29;7.50;99.90
45837;DHT22;31548;51.420;-0.040;2023-03-01T12:40:16;7.50;99.90
45837;DHT22;31548;51.420;-0.040;2023-03-01T12:43:16;7.40;99.90
45837;DHT22;31548;51.420;-0.040;2023-03-01T12:46:18;7.40;99.90
45837;DHT22;31548;51.420;-0.040;2023-03-01T12:48:58;7.30;99.90
45837;DHT22;31548;51.420;-0.040;2023-03-01T12:51:31;7.40;99.90
45837;DHT22;31548;51.420;-0.040;2023-03-01T12:54:02;7.40;99.90
45837;DHT22;31548;51.420;-0.040;2023-03-01T12:56:35;7.30;99.90
45837;DHT22;31548;51.420;-0.040;2023-03-01T13:01:41;7.30;99.90
45837;DHT22;31548;51.420;-0.040;2023-03-01T13:09:41;7.70;99.90
45837;DHT22;31548;51.420;-0.040;2023-03-01T13:12:44;7.90;99.90
45837;DHT22;31548;51.420;-0.040;2023-03-01T13:18:27;8.00;99.90
45837;DHT22;31548;51.420;-0.040;2023-03-01T13:20:58;8.00;99.90
45837;DHT22;31548;51.420;-0.040;2023-03-01T13:23:30;8.10;99.90
45837;DHT22;31548;51.420;-0.040;2023-03-01T13:26:11;8.00;99.90
45837;DHT22;31548;51.420;-0.040;2023-03-01T13:34:01;7.90;99.90
45837;DHT22;31548;51.420;-0.040;2023-03-01T13:39:05;7.70;99.90
45837;DHT22;31548;51.420;-0.040;2023-03-01T13:41:55;7.80;99.90
45837;DHT22;31548;51.420;-0.040;2023-03-01T13:52:42;7.90;99.90
45837;DHT22;31548;51.420;-0.040;2023-03-01T13:57:45;8.00;99.90
45837;DHT22;31548;51.420;-0.040;2023-03-01T14:00:30;8.10;99.90
45837;DHT22;31548;51.420;-0.040;2023-03-01T14:05:35;8.20;99.90
45837;DHT22;31548;51.420;-0.040;2023-03-01T14:08:04;8.20;99.90
45837;DHT22;31548;51.420;-0.040;2023-03-01T14:10:49;8.10;99.90
45837;DHT22;31548;51.420;-0.040;2023-03-01T14:19:18;8.00;99.90
45837;DHT22;31548;51.420;-0.040;2023-03-01T14:22:20;7.90;99.90
45837;DHT22;31548;51.420;-0.040;2023-03-01T14:24:55;8.00;99.90
45837;DHT22;31548;51.420;-0.040;2023-03-01T14:27:38;7.90;99.90
45837;DHT22;31548;51.420;-0.040;2023-03-01T14:30:40;7.90;99.90
45837;DHT22;31548;51.420;-0.040;2023-03-01T14:33:17;7.90;99.90
45837;DHT22;31548;51.420;-0.040;2023-03-01T14:38:33;7.90;99.90
45837;DHT22;31548;51.420;-0.040;2023-03-01T14:41:03;7.90;99.90
45837;DHT22;31548;51.420;-0.040;2023-03-01T14:43:33;7.90;99.90
45837;DHT22;31548;51.420;-0.040;2023-03-01T14:46:00;7.80;99.90
45837;DHT22;31548;51.420;-0.040;2023-03-01T14:48:29;7.90;99.90
45837;DHT22;31548;51.420;-0.040;2023-03-01T14:50:57;8.10;99.90
45837;DHT22;31548;51.420;-0.040;2023-03-01T14:53:28;8.20;99.90
45837;DHT22;31548;51.420;-0.040;2023-03-01T14:56:03;8.30;99.90
45837;DHT22;31548;51.420;-0.040;2023-03-01T14:58:33;8.40;99.90
45837;DHT22;31548;51.420;-0.040;2023-03-01T15:01:03;8.40;99.90
45837;DHT22;31548;51.420;-0.040;2023-03-01T15:03:37;8.40;99.90
45837;DHT22;31548;51.420;-0.040;2023-03-01T15:06:06;8.30;99.90
45837;DHT22;31548;51.420;-0.040;2023-03-01T15:08:35;8.40;99.90
45837;DHT22;31548;51.420;-0.040;2023-03-01T15:11:25;8.40;99.90
45837;DHT22;31548;51.420;-0.040;2023-03-01T15:13:54;8.40;99.90
45837;DHT22;31548;51.420;-0.040;2023-03-01T15:16:32;8.40;99.90
45837;DHT22;31548;51.420;-0.040;2023-03-01T15:19:03;8.40;99.90
45837;DHT22;31548;51.420;-0.040;2023-03-01T15:21:35;8.30;99.90
45837;DHT22;31548;51.420;-0.040;2023-03-01T15:29:20;8.30;99.90
45837;DHT22;31548;51.420;-0.040;2023-03-01T15:32:00;8.30;99.90
45837;DHT22;31548;51.420;-0.040;2023-03-01T15:34:38;8.30;99.90
45837;DHT22;31548;51.420;-0.040;2023-03-01T15:37:32;8.40;99.90
45837;DHT22;31548;51.420;-0.040;2023-03-01T15:39:56;8.50;99.90
45837;DHT22;31548;51.420;-0.040;2023-03-01T15:47:56;8.30;99.90
45837;DHT22;31548;51.420;-0.040;2023-03-01T15:50:32;8.30;99.90
45837;DHT22;31548;51.420;-0.040;2023-03-01T15:53:01;8.30;99.90
45837;DHT22;31548;51.420;-0.040;2023-03-01T15:55:32;8.30;99.90
45837;DHT22;31548;51.420;-0.040;2023-03-01T16:00:33;8.30;99.90
45837;DHT22;31548;51.420;-0.040;2023-03-01T16:03:00;8.40;99.90
45837;DHT22;31548;51.420;-0.040;2023-03-01T16:05:33;8.40;99.90
45837;DHT22;31548;51.420;-0.040;2023-03-01T16:08:02;8.50;99.90
45837;DHT22;31548;51.420;-0.040;2023-03-01T16:10:30;8.50;99.90
45837;DHT22;31548;51.420;-0.040;2023-03-01T16:12:58;8.50;99.90
45837;DHT22;31548;51.420;-0.040;2023-03-01T16:15:29;8.40;99.90
45837;DHT22;31548;51.420;-0.040;2023-03-01T16:17:59;8.40;99.90
45837;DHT22;31548;51.420;-0.040;2023-03-01T16:20:26;8.30;99.90
45837;DHT22;31548;51.420;-0.040;2023-03-01T16:22:59;8.30;99.90
45837;DHT22;31548;51.420;-0.040;2023-03-01T16:25:29;8.20;99.90
45837;DHT22;31548;51.420;-0.040;2023-03-01T16:27:56;8.20;99.90
45837;DHT22;31548;51.420;-0.040;2023-03-01T16:30:25;8.20;99.90
45837;DHT22;31548;51.420;-0.040;2023-03-01T16:32:53;8.10;99.90
45837;DHT22;31548;51.420;-0.040;2023-03-01T16:35:22;8.10;99.90
45837;DHT22;31548;51.420;-0.040;2023-03-01T16:37:50;8.10;99.90
45837;DHT22;31548;51.420;-0.040;2023-03-01T16:40:22;8.10;99.90
45837;DHT22;31548;51.420;-0.040;2023-03-01T16:42:51;8.00;99.90
45837;DHT22;31548;51.420;-0.040;2023-03-01T16:45:19;8.00;99.90
45837;DHT22;31548;51.420;-0.040;2023-03-01T16:47:52;8.00;99.90
45837;DHT22;31548;51.420;-0.040;2023-03-01T16:50:22;7.90;99.90
45837;DHT22;31548;51.420;-0.040;2023-03-01T16:52:49;7.90;99.90
45837;DHT22;31548;51.420;-0.040;2023-03-01T16:55:17;7.90;99.90
45837;DHT22;31548;51.420;-0.040;2023-03-01T16:57:44;7.80;99.90
45837;DHT22;31548;51.420;-0.040;2023-03-01T17:00:12;7.80;99.90
45837;DHT22;31548;51.420;-0.040;2023-03-01T17:02:41;7.70;99.90
45837;DHT22;31548;51.420;-0.040;2023-03-01T17:05:09;7.80;99.90
45837;DHT22;31548;51.420;-0.040;2023-03-01T17:07:39;7.70;99.90
45837;DHT22;31548;51.420;-0.040;2023-03-01T17:10:09;7.70;99.90
45837;DHT22;31548;51.420;-0.040;2023-03-01T17:12:37;7.70;99.90
45837;DHT22;31548;51.420;-0.040;2023-03-01T17:15:05;7.70;99.90
45837;DHT22;31548;51.420;-0.040;2023-03-01T17:17:33;7.60;99.90
45837;DHT22;31548;51.420;-0.040;2023-03-01T17:20:02;7.70;99.90
45837;DHT22;31548;51.420;-0.040;2023-03-01T17:22:31;7.60;99.90
45837;DHT22;31548;51.420;-0.040;2023-03-01T17:24:58;7.60;99.90
45837;DHT22;31548;51.420;-0.040;2023-03-01T17:27:25;7.60;99.90
45837;DHT22;31548;51.420;-0.040;2023-03-01T17:29:53;7.60;99.90
45837;DHT22;31548;51.420;-0.040;2023-03-01T17:32:20;7.50;99.90
45837;DHT22;31548;51.420;-0.040;2023-03-01T17:34:48;7.50;99.90
45837;DHT22;31548;51.420;-0.040;2023-03-01T17:37:15;7.50;99.90
45837;DHT22;31548;51.420;-0.040;2023-03-01T17:39:43;7.50;99.90
45837;DHT22;31548;51.420;-0.040;2023-03-01T17:42:10;7.50;99.90
45837;DHT22;31548;51.420;-0.040;2023-03-01T17:44:37;7.40;99.90
45837;DHT22;31548;51.420;-0.040;2023-03-01T17:47:05;7.40;99.90
45837;DHT22;31548;51.420;-0.040;2023-03-01T17:49:32;7.40;99.90
45837;DHT22;31548;51.420;-0.040;2023-03-01T17:52:00;7.40;99.90
45837;DHT22;31548;51.420;-0.040;2023-03-01T17:54:27;7.40;99.90
45837;DHT22;31548;51.420;-0.040;2023-03-01T17:56:55;7.30;99.90
45837;DHT22;31548;51.420;-0.040;2023-03-01T17:59:25;7.30;99.90
45837;DHT22;31548;51.420;-0.040;2023-03-01T18:01:59;7.30;99.90
45837;DHT22;31548;51.420;-0.040;2023-03-01T18:04:28;7.30;99.90
45837;DHT22;31548;51.420;-0.040;2023-03-01T18:06:55;7.30;99.90
45837;DHT22;31548;51.420;-0.040;2023-03-01T18:09:22;7.30;99.90